createdAt,value
2023-05-01T00:00:09.823Z,7.29
2023-05-01T00:03:14.499Z,7.24
2023-05-01T00:06:17.895Z,7.30
2023-05-01T00:09:19.550Z,7.29
2023-05-01T00:12:21.418Z,7.18
2023-05-01T00:15:23.220Z,7.15
2023-05-01T00:18:24.904Z,7.21
2023-05-01T00:21:28.818Z,7.22
2023-05-01T00:24:30.281Z,7.16
2023-05-01T00:27:32.041Z,7.07
2023-05-01T00:30:34.126Z,6.95
2023-05-01T00:33:35.811Z,6.94
2023-05-01T00:36:38.944Z,6.88
2023-05-01T00:39:40.502Z,6.83
2023-05-01T00:42:42.066Z,6.86
2023-05-01T00:45:44.773Z,6.87
2023-05-01T00:48:46.449Z,6.88
2023-05-01T00:51:50.988Z,6.86
2023-05-01T00:54:52.661Z,6.85
2023-05-01T00:57:55.137Z,6.83
2023-05-01T01:00:57.922Z,6.78
2023-05-01T01:03:59.924Z,6.81
2023-05-01T01:07:08.125Z,6.80
2023-05-01T01:10:18.215Z,6.81
2023-05-01T01:13:22.405Z,6.83
2023-05-01T01:16:28.483Z,6.80
2023-05-01T01:19:47.228Z,6.82
2023-05-01T01:22:53.297Z,6.80
2023-05-01T01:26:11.318Z,6.79
2023-05-01T01:29:22.687Z,6.75
2023-05-01T01:32:41.838Z,6.73
2023-05-01T01:35:50.071Z,6.77
2023-05-01T01:38:54.374Z,6.75
2023-05-01T01:41:57.709Z,6.78
2023-05-01T01:45:03.182Z,6.73
2023-05-01T01:48:07.304Z,6.71
2023-05-01T01:51:13.296Z,6.68
2023-05-01T01:54:18.604Z,6.65
2023-05-01T01:57:21.479Z,6.60
2023-05-01T02:00:23.582Z,6.54
2023-05-01T02:03:26.640Z,6.55
2023-05-01T02:06:31.754Z,6.52
2023-05-01T02:09:34.846Z,6.51
2023-05-01T02:12:37.256Z,6.48
2023-05-01T02:15:40.705Z,6.47
2023-05-01T02:18:43.655Z,6.35
2023-05-01T02:21:47.773Z,6.23
2023-05-01T02:24:49.680Z,6.26
2023-05-01T02:27:55.762Z,6.16
2023-05-01T02:30:58.462Z,6.14
2023-05-01T02:34:02.086Z,6.12
2023-05-01T02:37:06.920Z,6.10
2023-05-01T02:40:11.878Z,6.13
2023-05-01T02:43:15.674Z,6.04
2023-05-01T02:46:18.637Z,6.06
2023-05-01T02:49:21.468Z,6.12
2023-05-01T02:52:24.504Z,6.04
2023-05-01T02:55:35.930Z,6.00
2023-05-01T02:58:38.137Z,5.96
2023-05-01T03:01:40.094Z,5.90
2023-05-01T03:04:42.169Z,5.94
2023-05-01T03:07:45.568Z,6.04
2023-05-01T03:10:47.955Z,6.13
2023-05-01T03:13:49.517Z,6.13
2023-05-01T03:16:51.204Z,6.08
2023-05-01T03:19:53.516Z,6.08
2023-05-01T03:22:57.018Z,6.07
2023-05-01T03:25:59.461Z,6.01
2023-05-01T03:29:01.188Z,6.01
2023-05-01T03:32:03.074Z,5.98
2023-05-01T03:35:05.361Z,5.93
2023-05-01T03:38:08.890Z,5.86
2023-05-01T03:41:29.311Z,5.81
2023-05-01T03:44:54.244Z,5.76
2023-05-01T03:47:57.329Z,5.76
2023-05-01T03:50:59.480Z,5.78
2023-05-01T03:54:03.895Z,5.80
2023-05-01T03:57:14.707Z,5.86
2023-05-01T04:00:16.887Z,5.91
2023-05-01T04:03:19.185Z,5.80
2023-05-01T04:06:22.989Z,5.77
2023-05-01T04:09:26.692Z,5.78
2023-05-01T04:12:28.342Z,5.82
2023-05-01T04:15:29.939Z,5.86
2023-05-01T04:18:31.842Z,5.86
2023-05-01T04:21:34.580Z,5.89
2023-05-01T04:24:37.899Z,5.92
2023-05-01T04:27:39.677Z,5.94
2023-05-01T04:30:41.244Z,5.92
2023-05-01T04:33:43.485Z,5.94
2023-05-01T04:36:45.433Z,6.00
2023-05-01T04:39:48.575Z,6.09
2023-05-01T04:42:50.270Z,6.14
2023-05-01T04:45:51.985Z,6.16
2023-05-01T04:48:53.870Z,6.14
2023-05-01T04:51:55.961Z,6.15
2023-05-01T04:55:01.320Z,6.15
2023-05-01T04:58:05.706Z,6.25
2023-05-01T05:01:10.792Z,6.35
2023-05-01T05:04:12.892Z,6.50
2023-05-01T05:07:14.577Z,6.59
2023-05-01T05:10:37.460Z,6.65
2023-05-01T05:13:51.790Z,6.76
2023-05-01T05:16:53.587Z,6.91
2023-05-01T05:19:55.509Z,6.94
2023-05-01T05:22:57.358Z,6.94
2023-05-01T05:26:01.892Z,6.96
2023-05-01T05:29:03.849Z,7.05
2023-05-01T05:32:06.300Z,7.16
2023-05-01T05:35:08.539Z,7.25
2023-05-01T05:38:10.650Z,7.42
2023-05-01T05:41:16.766Z,7.55
2023-05-01T05:44:19.388Z,7.60
2023-05-01T05:47:21.133Z,7.65
2023-05-01T05:50:22.745Z,7.64
2023-05-01T05:53:26.295Z,7.74
2023-05-01T05:56:30.443Z,7.83
2023-05-01T05:59:33.044Z,7.89
2023-05-01T06:02:34.764Z,8.02
2023-05-01T06:05:37.144Z,8.06
2023-05-01T06:08:38.924Z,8.14
2023-05-01T06:11:46.139Z,8.31
2023-05-01T06:14:47.722Z,8.34
2023-05-01T06:17:50.295Z,8.45
2023-05-01T06:20:52.665Z,8.60
2023-05-01T06:23:54.611Z,8.72
2023-05-01T06:27:07.910Z,8.91
2023-05-01T06:30:10.860Z,9.06
2023-05-01T06:33:15.722Z,9.23
2023-05-01T06:36:20.646Z,9.29
2023-05-01T06:39:22.740Z,9.32
2023-05-01T06:42:26.257Z,9.34
2023-05-01T06:45:31.939Z,9.41
2023-05-01T06:48:33.542Z,9.43
2023-05-01T06:51:35.528Z,9.40
2023-05-01T06:54:37.155Z,9.50
2023-05-01T06:57:40.434Z,9.67
2023-05-01T07:00:42.119Z,9.79
2023-05-01T07:03:43.859Z,9.85
2023-05-01T07:06:45.594Z,9.93
2023-05-01T07:09:47.405Z,10.09
2023-05-01T07:12:50.868Z,10.17
2023-05-01T07:15:54.673Z,10.34
2023-05-01T07:18:57.314Z,10.47
2023-05-01T07:21:59.036Z,10.56
2023-05-01T07:25:02.162Z,10.63
2023-05-01T07:28:06.092Z,10.66
2023-05-01T07:31:09.498Z,10.76
2023-05-01T07:34:11.805Z,10.85
2023-05-01T07:37:19.074Z,10.95
2023-05-01T07:40:20.663Z,11.09
2023-05-01T07:43:23.753Z,11.25
2023-05-01T07:46:25.581Z,11.31
2023-05-01T07:49:27.337Z,11.44
2023-05-01T07:52:29.422Z,11.57
2023-05-01T07:55:31.337Z,11.67
2023-05-01T07:58:34.743Z,11.74
2023-05-01T08:01:37.348Z,11.75
2023-05-01T08:04:39.077Z,11.81
2023-05-01T08:07:40.746Z,12.06
2023-05-01T08:10:42.326Z,12.22
2023-05-01T08:13:45.432Z,12.34
2023-05-01T08:16:47.313Z,12.39
2023-05-01T08:19:50.088Z,12.56
2023-05-01T08:22:52.099Z,12.82
2023-05-01T08:25:54.058Z,12.98
2023-05-01T08:28:57.710Z,12.84
2023-05-01T08:31:59.440Z,12.81
2023-05-01T08:35:01.169Z,12.80
2023-05-01T08:38:03.211Z,12.96
2023-05-01T08:41:05.027Z,13.21
2023-05-01T08:44:08.889Z,13.47
2023-05-01T08:47:12.711Z,13.59
2023-05-01T08:50:16.545Z,13.58
2023-05-01T08:53:19.010Z,13.56
2023-05-01T08:56:23.817Z,13.61
2023-05-01T08:59:28.709Z,13.71
2023-05-01T09:02:32.119Z,13.81
2023-05-01T09:05:33.917Z,13.91
2023-05-01T09:08:37.519Z,14.07
2023-05-01T09:11:39.751Z,14.19
2023-05-01T09:14:48.032Z,14.25
2023-05-01T09:17:50.855Z,14.41
2023-05-01T09:20:53.360Z,14.26
2023-05-01T09:23:55.090Z,14.38
2023-05-01T09:26:58.956Z,14.59
2023-05-01T09:30:02.699Z,14.71
2023-05-01T09:33:05.555Z,14.74
2023-05-01T09:36:08.579Z,14.74
2023-05-01T09:39:23.140Z,14.74
2023-05-01T09:42:24.789Z,14.65
2023-05-01T09:45:27.993Z,14.71
2023-05-01T09:48:34.122Z,14.86
2023-05-01T09:51:36.899Z,15.10
2023-05-01T09:54:38.609Z,15.18
2023-05-01T09:57:40.400Z,15.15
2023-05-01T10:00:51.604Z,15.13
2023-05-01T10:03:54.093Z,15.21
2023-05-01T10:06:56.769Z,15.10
2023-05-01T10:10:00.750Z,15.05
2023-05-01T10:13:13.237Z,15.08
2023-05-01T10:16:36.320Z,15.26
2023-05-01T10:19:39.685Z,15.39
2023-05-01T10:22:41.518Z,15.41
2023-05-01T10:25:44.253Z,15.44
2023-05-01T10:28:47.503Z,15.68
2023-05-01T10:31:49.150Z,15.83
2023-05-01T10:34:55.469Z,16.06
2023-05-01T10:37:59.887Z,16.21
2023-05-01T10:41:01.465Z,16.36
2023-05-01T10:44:24.328Z,16.59
2023-05-01T10:47:44.650Z,16.51
2023-05-01T10:51:05.025Z,16.16
2023-05-01T10:54:23.758Z,16.23
2023-05-01T10:57:40.167Z,16.40
2023-05-01T11:00:42.254Z,16.59
2023-05-01T11:03:44.698Z,16.70
2023-05-01T11:07:14.084Z,16.64
2023-05-01T11:10:27.303Z,16.85
2023-05-01T11:13:44.093Z,16.83
2023-05-01T11:16:46.834Z,17.05
2023-05-01T11:19:49.110Z,17.05
2023-05-01T11:22:51.579Z,17.13
2023-05-01T11:26:05.015Z,17.13
2023-05-01T11:29:06.904Z,17.15
2023-05-01T11:32:10.893Z,16.93
2023-05-01T11:35:17.173Z,16.95
2023-05-01T11:38:18.992Z,16.79
2023-05-01T11:41:22.847Z,16.59
2023-05-01T11:44:24.539Z,16.50
2023-05-01T11:47:26.602Z,16.50
2023-05-01T11:50:32.044Z,16.43
2023-05-01T11:53:34.036Z,16.39
2023-05-01T11:56:37.645Z,16.37
2023-05-01T11:59:42.546Z,16.46
2023-05-01T12:02:58.112Z,16.41
2023-05-01T12:05:59.943Z,16.38
2023-05-01T12:09:02.005Z,16.37
2023-05-01T12:12:05.734Z,16.30
2023-05-01T12:15:07.699Z,16.37
2023-05-01T12:18:09.530Z,16.47
2023-05-01T12:21:15.338Z,16.41
2023-05-01T12:24:17.921Z,16.43
2023-05-01T12:27:21.091Z,16.42
2023-05-01T12:30:24.824Z,16.37
2023-05-01T12:33:26.644Z,16.31
2023-05-01T12:36:29.148Z,16.23
2023-05-01T12:39:38.324Z,16.13
2023-05-01T12:42:42.979Z,16.08
2023-05-01T12:45:44.650Z,16.06
2023-05-01T12:48:46.922Z,16.08
2023-05-01T12:51:49.248Z,16.07
2023-05-01T12:54:51.384Z,16.12
2023-05-01T12:57:54.917Z,16.20
2023-05-01T13:00:56.553Z,16.34
2023-05-01T13:03:58.415Z,16.50
2023-05-01T13:07:00.278Z,16.77
2023-05-01T13:10:03.527Z,16.98
2023-05-01T13:13:06.877Z,17.04
2023-05-01T13:16:10.380Z,17.13
2023-05-01T13:19:13.119Z,17.23
2023-05-01T13:22:14.749Z,17.76
2023-05-01T13:25:17.508Z,17.53
2023-05-01T13:28:20.914Z,17.18
2023-05-01T13:31:22.537Z,16.88
2023-05-01T13:34:27.658Z,16.85
2023-05-01T13:37:32.452Z,16.75
2023-05-01T13:40:34.217Z,16.68
2023-05-01T13:43:37.791Z,16.97
2023-05-01T13:46:42.224Z,17.25
2023-05-01T13:49:44.498Z,17.79
2023-05-01T13:52:46.367Z,17.64
2023-05-01T13:55:48.143Z,17.94
2023-05-01T13:58:51.499Z,18.43
2023-05-01T14:01:53.138Z,18.39
2023-05-01T14:04:55.898Z,18.11
2023-05-01T14:07:59.000Z,18.24
2023-05-01T14:11:04.322Z,18.24
2023-05-01T14:14:07.639Z,18.27
2023-05-01T14:17:09.821Z,18.67
2023-05-01T14:20:12.245Z,18.94
2023-05-01T14:23:16.995Z,18.85
2023-05-01T14:26:19.979Z,18.95
2023-05-01T14:29:26.147Z,18.95
2023-05-01T14:32:30.273Z,19.18
2023-05-01T14:35:32.141Z,19.35
2023-05-01T14:38:39.299Z,19.24
2023-05-01T14:41:42.486Z,19.18
2023-05-01T14:44:45.471Z,19.09
2023-05-01T14:47:48.088Z,18.85
2023-05-01T14:50:49.846Z,18.52
2023-05-01T14:53:51.507Z,18.10
2023-05-01T14:56:53.525Z,17.84
2023-05-01T14:59:56.569Z,17.87
2023-05-01T15:02:58.830Z,18.02
2023-05-01T15:06:00.986Z,18.16
2023-05-01T15:09:02.640Z,18.19
2023-05-01T15:12:06.733Z,17.98
2023-05-01T15:15:10.989Z,18.16
2023-05-01T15:18:12.614Z,18.22
2023-05-01T15:21:14.252Z,18.32
2023-05-01T15:24:16.847Z,18.19
2023-05-01T15:27:18.645Z,17.95
2023-05-01T15:30:21.516Z,17.71
2023-05-01T15:33:23.431Z,17.61
2023-05-01T15:36:25.503Z,17.51
2023-05-01T15:39:30.463Z,17.39
2023-05-01T15:42:32.272Z,17.32
2023-05-01T15:45:35.741Z,17.31
2023-05-01T15:48:38.505Z,17.24
2023-05-01T15:51:40.177Z,17.23
2023-05-01T15:54:42.034Z,17.17
2023-05-01T15:57:45.104Z,17.16
2023-05-01T16:00:49.580Z,17.10
2023-05-01T16:03:52.017Z,17.08
2023-05-01T16:06:55.271Z,17.04
2023-05-01T16:09:58.554Z,17.11
2023-05-01T16:13:00.419Z,17.24
2023-05-01T16:16:03.823Z,17.37
2023-05-01T16:19:05.721Z,17.66
2023-05-01T16:22:07.232Z,18.07
2023-05-01T16:25:09.677Z,18.24
2023-05-01T16:28:11.685Z,18.29
2023-05-01T16:31:26.706Z,17.79
2023-05-01T16:34:29.318Z,17.49
2023-05-01T16:37:31.754Z,17.28
2023-05-01T16:40:33.637Z,17.21
2023-05-01T16:43:36.132Z,17.07
2023-05-01T16:46:41.237Z,17.02
2023-05-01T16:49:43.038Z,16.91
2023-05-01T16:52:44.630Z,16.87
2023-05-01T16:55:46.281Z,16.80
2023-05-01T16:58:47.895Z,16.74
2023-05-01T17:01:51.582Z,16.67
2023-05-01T17:04:53.487Z,16.58
2023-05-01T17:07:55.414Z,16.51
2023-05-01T17:10:57.288Z,16.46
2023-05-01T17:13:59.166Z,16.40
2023-05-01T17:17:02.262Z,16.34
2023-05-01T17:20:04.851Z,16.29
2023-05-01T17:23:10.072Z,16.25
2023-05-01T17:26:13.584Z,16.19
2023-05-01T17:29:15.445Z,16.15
2023-05-01T17:32:29.586Z,16.12
2023-05-01T17:35:38.328Z,16.07
2023-05-01T17:38:40.267Z,16.04
2023-05-01T17:41:41.815Z,15.99
2023-05-01T17:44:43.615Z,15.93
2023-05-01T17:47:46.801Z,15.88
2023-05-01T17:50:48.836Z,15.84
2023-05-01T17:53:50.439Z,15.81
2023-05-01T17:56:52.194Z,15.77
2023-05-01T17:59:53.902Z,15.72
2023-05-01T18:02:56.963Z,15.72
2023-05-01T18:05:58.708Z,15.69
2023-05-01T18:09:01.260Z,15.65
2023-05-01T18:12:03.283Z,15.62
2023-05-01T18:15:05.207Z,15.60
2023-05-01T18:18:08.228Z,15.60
2023-05-01T18:21:09.839Z,15.55
2023-05-01T18:24:11.826Z,15.56
2023-05-01T18:27:13.537Z,15.48
2023-05-01T18:30:15.221Z,15.34
2023-05-01T18:33:18.653Z,15.22
2023-05-01T18:36:21.334Z,15.13
2023-05-01T18:39:23.019Z,15.03
2023-05-01T18:42:24.517Z,14.96
2023-05-01T18:45:26.370Z,14.91
2023-05-01T18:48:29.403Z,14.87
2023-05-01T18:51:31.774Z,14.83
2023-05-01T18:54:33.539Z,14.75
2023-05-01T18:57:36.019Z,14.57
2023-05-01T19:00:37.563Z,14.27
2023-05-01T19:03:41.186Z,14.11
2023-05-01T19:06:42.886Z,13.88
2023-05-01T19:09:44.824Z,13.62
2023-05-01T19:12:46.479Z,13.39
2023-05-01T19:15:48.435Z,13.23
2023-05-01T19:18:51.647Z,13.03
2023-05-01T19:21:53.264Z,12.77
2023-05-01T19:24:55.334Z,12.50
2023-05-01T19:27:57.336Z,12.38
2023-05-01T19:30:59.066Z,12.31
2023-05-01T19:34:02.087Z,12.20
2023-05-01T19:37:03.845Z,12.07
2023-05-01T19:40:06.516Z,11.90
2023-05-01T19:43:08.282Z,11.77
2023-05-01T19:46:10.022Z,11.68
2023-05-01T19:49:12.973Z,11.59
2023-05-01T19:52:14.926Z,11.53
2023-05-01T19:55:17.235Z,11.48
2023-05-01T19:58:18.930Z,11.48
2023-05-01T20:01:21.279Z,11.53
2023-05-01T20:04:24.894Z,11.54
2023-05-01T20:07:27.864Z,11.39
2023-05-01T20:10:29.718Z,11.36
2023-05-01T20:13:31.738Z,11.35
2023-05-01T20:16:33.459Z,11.37
2023-05-01T20:19:39.536Z,11.34
2023-05-01T20:22:41.802Z,11.36
2023-05-01T20:25:43.869Z,11.41
2023-05-01T20:28:46.098Z,11.30
2023-05-01T20:31:48.664Z,11.20
2023-05-01T20:34:55.382Z,11.12
2023-05-01T20:37:57.575Z,11.16
2023-05-01T20:40:59.141Z,11.21
2023-05-01T20:44:02.607Z,11.15
2023-05-01T20:47:04.350Z,11.12
2023-05-01T20:50:07.836Z,11.13
2023-05-01T20:53:09.597Z,11.14
2023-05-01T20:56:11.334Z,11.20
2023-05-01T20:59:13.619Z,11.20
2023-05-01T21:02:15.242Z,11.16
2023-05-01T21:05:18.349Z,11.15
2023-05-01T21:08:20.012Z,11.15
2023-05-01T21:11:21.812Z,11.14
2023-05-01T21:14:27.700Z,11.13
2023-05-01T21:17:33.705Z,11.14
2023-05-01T21:20:40.659Z,11.10
2023-05-01T21:23:46.268Z,11.05
2023-05-01T21:26:50.632Z,11.01
2023-05-01T21:29:54.861Z,10.99
2023-05-01T21:33:01.090Z,10.98
2023-05-01T21:36:04.421Z,10.97
2023-05-01T21:39:06.023Z,10.95
2023-05-01T21:42:07.992Z,10.96
2023-05-01T21:45:10.502Z,10.98
2023-05-01T21:48:14.918Z,11.00
2023-05-01T21:51:17.965Z,11.02
2023-05-01T21:54:21.496Z,11.03
2023-05-01T21:57:23.963Z,10.98
2023-05-01T22:00:25.987Z,10.91
2023-05-01T22:03:27.911Z,10.92
2023-05-01T22:06:31.047Z,10.95
2023-05-01T22:09:32.873Z,10.96
2023-05-01T22:12:34.660Z,11.00
2023-05-01T22:15:36.449Z,11.02
2023-05-01T22:18:41.128Z,11.03
2023-05-01T22:21:44.034Z,11.07
2023-05-01T22:24:46.006Z,11.08
2023-05-01T22:27:47.638Z,11.14
2023-05-01T22:30:49.212Z,11.19
2023-05-01T22:33:50.878Z,11.12
2023-05-01T22:36:53.855Z,11.06
2023-05-01T22:39:55.666Z,11.01
2023-05-01T22:42:57.484Z,10.95
2023-05-01T22:45:59.729Z,10.93
2023-05-01T22:49:03.344Z,10.92
2023-05-01T22:52:06.838Z,10.91
2023-05-01T22:55:08.610Z,10.92
2023-05-01T22:58:10.369Z,10.92
2023-05-01T23:01:12.065Z,10.94
2023-05-01T23:04:14.339Z,10.84
2023-05-01T23:07:18.314Z,10.80
2023-05-01T23:10:21.077Z,10.79
2023-05-01T23:13:23.616Z,10.79
2023-05-01T23:16:25.433Z,10.74
2023-05-01T23:19:27.319Z,10.70
2023-05-01T23:22:35.129Z,10.71
2023-05-01T23:25:36.929Z,10.65
2023-05-01T23:28:42.222Z,10.61
2023-05-01T23:31:46.691Z,10.60
2023-05-01T23:34:49.031Z,10.56
2023-05-01T23:37:53.543Z,10.51
2023-05-01T23:40:55.614Z,10.46
2023-05-01T23:43:57.316Z,10.45
2023-05-01T23:46:59.133Z,10.49
2023-05-01T23:50:01.531Z,10.48
2023-05-01T23:53:07.679Z,10.50
2023-05-01T23:56:09.185Z,10.48
2023-05-01T23:59:11.947Z,10.46
